Winchester, Texas
Current Conditions -  °F | °C
As of 10:35 PM on Saturday 25 Oct 2014 (Local Time) from K3T5 Reporting Station
Clear Clear  
Wind Chill: 72°   Ceiling: Unl
Heat Index: 72°   Visibility: 10mi
Dew Point: 61°   Wind: 7mph
Humidity: 69%   Direction: 190°S
Pressure: 30.09"   Gusts: NA
Location:  29.8569°N, 96.9311°W
Report Text: K3T5 260335Z AUTO 19006KT 10SM CLR 22/16 A3009 RMK AO2 T02200160
Loading
Personal Weather Stations






























Interactive Weather Map New forecast layout! Learn more

10-Day Weather Forecast

Advertisements
Track Severe Weather on mobile